createdAt,value
2022-09-11T00:00:55.687Z,99279.33
2022-09-11T00:01:57.821Z,99275.81
2022-09-11T00:03:00.264Z,99273.84
2022-09-11T00:04:04.148Z,99272.03
2022-09-11T00:05:06.950Z,99263.13
2022-09-11T00:06:13.141Z,99263.13
2022-09-11T00:07:15.334Z,99259.60
2022-09-11T00:08:18.849Z,99258.77
2022-09-11T00:09:20.981Z,99258.77
2022-09-11T00:10:23.491Z,99258.77
2022-09-11T00:12:47.330Z,99251.66
2022-09-11T00:13:51.116Z,99257.77
2022-09-11T00:14:53.255Z,99261.44
2022-09-11T00:15:55.769Z,99246.33
2022-09-11T00:16:58.393Z,99247.17
2022-09-11T00:18:00.493Z,99242.68
2022-09-11T00:19:05.774Z,99250.72
2022-09-11T00:20:09.227Z,99248.04
2022-09-11T00:21:11.953Z,99248.04
2022-09-11T00:22:15.765Z,99248.04
2022-09-11T00:23:18.347Z,99243.65
2022-09-11T00:24:20.914Z,99247.17
2022-09-11T00:25:23.010Z,99244.48
2022-09-11T00:26:26.700Z,99244.48
2022-09-11T00:27:30.031Z,99241.81
2022-09-11T00:28:33.018Z,99241.68
2022-09-11T00:29:35.205Z,99241.68
2022-09-11T00:30:37.614Z,99246.20
2022-09-11T00:31:40.567Z,99247.17
2022-09-11T00:32:43.180Z,99245.36
2022-09-11T00:33:46.461Z,99235.61
2022-09-11T00:34:49.163Z,99244.48
2022-09-11T00:35:55.987Z,99239.13
2022-09-11T00:36:59.248Z,99237.32
2022-09-11T00:38:01.373Z,99238.16
2022-09-11T00:39:04.649Z,99238.29
2022-09-11T00:40:08.182Z,99229.28
2022-09-11T00:42:25.181Z,99230.20
2022-09-11T00:43:28.164Z,99223.05
2022-09-11T00:44:34.061Z,99219.39
2022-09-11T00:45:36.268Z,99208.81
2022-09-11T00:46:45.195Z,99219.53
2022-09-11T00:47:47.936Z,99224.05
2022-09-11T00:48:50.115Z,99224.89
2022-09-11T00:49:53.266Z,99224.05
2022-09-11T00:50:55.987Z,99214.17
2022-09-11T00:52:09.906Z,99221.37
2022-09-11T00:53:13.425Z,99216.84
2022-09-11T00:54:17.075Z,99221.37
2022-09-11T00:55:19.864Z,99202.73
2022-09-11T00:56:23.451Z,99209.06
2022-09-11T00:57:29.315Z,99209.06
2022-09-11T00:58:33.959Z,99210.04
2022-09-11T00:59:37.200Z,99215.39
2022-09-11T01:00:39.596Z,99211.00
2022-09-11T01:01:41.871Z,99207.36
2022-09-11T01:02:47.148Z,99198.48
2022-09-11T01:03:49.567Z,99202.00
2022-09-11T01:04:51.868Z,99197.61
2022-09-11T01:05:53.928Z,99200.28
2022-09-11T01:06:56.825Z,99195.80
2022-09-11T01:07:58.891Z,99195.80
2022-09-11T01:09:01.762Z,99203.84
2022-09-11T01:10:05.234Z,99199.31
2022-09-11T01:12:48.959Z,99201.95
2022-09-11T01:15:36.308Z,99194.88
2022-09-11T01:16:42.650Z,99193.12
2022-09-11T01:17:48.549Z,99190.57
2022-09-11T01:19:27.635Z,99198.61
2022-09-11T01:21:00.753Z,99200.42
2022-09-11T01:22:12.710Z,99198.70
2022-09-11T01:23:34.043Z,99193.48
2022-09-11T01:24:49.752Z,99192.77
2022-09-11T01:27:46.613Z,99193.95
2022-09-11T01:30:21.047Z,99187.02
2022-09-11T01:31:25.445Z,99194.26
2022-09-11T01:32:48.465Z,99184.52
2022-09-11T01:34:00.701Z,99188.16
2022-09-11T01:35:13.204Z,99184.52
2022-09-11T01:36:19.153Z,99180.99
2022-09-11T01:38:38.151Z,99183.63
2022-09-11T01:39:42.878Z,99180.13
2022-09-11T01:42:04.795Z,99181.79
2022-09-11T01:43:20.726Z,99179.99
2022-09-11T01:45:42.078Z,99185.21
2022-09-11T01:46:47.480Z,99174.50
2022-09-11T01:47:51.033Z,99178.05
2022-09-11T01:50:10.476Z,99178.84
2022-09-11T01:51:14.835Z,99175.24
2022-09-11T01:52:23.206Z,99167.20
2022-09-11T01:53:27.947Z,99172.56
2022-09-11T01:54:33.653Z,99173.41
2022-09-11T01:55:42.192Z,99157.33
2022-09-11T01:56:50.911Z,99165.36
2022-09-11T01:57:59.777Z,99153.67
2022-09-11T01:59:04.917Z,99155.52
2022-09-11T02:00:10.304Z,99152.70
2022-09-11T02:01:17.814Z,99161.58
2022-09-11T02:02:23.265Z,99163.30
2022-09-11T02:03:28.457Z,99156.22
2022-09-11T02:07:21.214Z,99152.58
2022-09-11T02:12:03.196Z,99149.98
2022-09-11T02:13:14.246Z,99153.55
2022-09-11T02:14:22.310Z,99145.50
2022-09-11T02:15:25.564Z,99141.12
2022-09-11T02:17:04.000Z,99143.80
2022-09-11T02:18:10.403Z,99143.80
2022-09-11T02:19:14.819Z,99136.62
2022-09-11T02:20:18.939Z,99133.08
2022-09-11T02:21:21.110Z,99134.92
2022-09-11T02:22:23.309Z,99140.41
2022-09-11T02:23:26.013Z,99143.09
2022-09-11T02:24:29.189Z,99134.92
2022-09-11T02:25:31.254Z,99129.69
2022-09-11T02:27:48.756Z,99132.31
2022-09-11T02:28:52.164Z,99127.85
2022-09-11T02:29:54.495Z,99127.85
2022-09-11T02:30:56.891Z,99129.56
2022-09-11T02:31:59.760Z,99135.76
2022-09-11T02:33:02.843Z,99123.23
2022-09-11T02:34:07.901Z,99141.12
2022-09-11T02:35:12.178Z,99117.87
2022-09-11T02:36:39.915Z,99123.36
2022-09-11T02:37:49.239Z,99127.59
2022-09-11T02:40:39.527Z,99126.69
2022-09-11T02:41:54.835Z,99124.07
2022-09-11T02:43:19.160Z,99125.04
2022-09-11T02:44:38.876Z,99125.04
2022-09-11T02:46:15.349Z,99125.30
2022-09-11T02:47:43.692Z,99125.44
2022-09-11T02:49:15.651Z,99126.41
2022-09-11T02:50:37.982Z,99121.18
2022-09-11T02:51:54.889Z,99125.83
2022-09-11T02:53:06.726Z,99120.60
2022-09-11T02:54:33.974Z,99124.25
2022-09-11T02:55:52.592Z,99126.06
2022-09-11T02:57:22.535Z,99134.23
2022-09-11T02:58:31.910Z,99121.84
2022-09-11T03:00:54.557Z,99122.89
2022-09-11T03:01:57.044Z,99130.97
2022-09-11T03:03:01.770Z,99131.81
2022-09-11T03:04:05.839Z,99132.78
2022-09-11T03:05:08.715Z,99143.39
2022-09-11T03:07:27.456Z,99131.63
2022-09-11T03:08:31.041Z,99141.42
2022-09-11T03:09:33.784Z,99140.45
2022-09-11T03:10:38.604Z,99128.73
2022-09-11T03:11:43.510Z,99141.16
2022-09-11T03:12:47.447Z,99135.67
2022-09-11T03:13:50.270Z,99141.77
2022-09-11T03:14:54.267Z,99141.77
2022-09-11T03:15:56.653Z,99153.33
2022-09-11T03:16:59.019Z,99145.29
2022-09-11T03:18:01.197Z,99150.52
2022-09-11T03:19:04.450Z,99149.68
2022-09-11T03:20:07.825Z,99146.87
2022-09-11T03:21:10.067Z,99154.78
2022-09-11T03:22:12.441Z,99141.38
2022-09-11T03:23:15.164Z,99149.42
2022-09-11T03:24:17.332Z,99145.77
2022-09-11T03:25:20.974Z,99145.77
2022-09-11T03:26:24.675Z,99158.33
2022-09-11T03:27:27.679Z,99152.09
2022-09-11T03:28:29.748Z,99151.12
2022-09-11T03:29:31.942Z,99151.12
2022-09-11T03:30:36.308Z,99151.97
2022-09-11T03:31:39.469Z,99143.80
2022-09-11T03:32:42.385Z,99148.31
2022-09-11T03:33:47.978Z,99146.48
2022-09-11T03:34:50.085Z,99134.92
2022-09-11T03:35:52.306Z,99148.19
2022-09-11T03:36:55.034Z,99138.44
2022-09-11T03:37:57.424Z,99144.66
2022-09-11T03:39:00.393Z,99147.34
2022-09-11T03:40:03.754Z,99149.16
2022-09-11T03:41:07.107Z,99155.39
2022-09-11T03:42:09.937Z,99155.39
2022-09-11T03:43:13.254Z,99158.91
2022-09-11T03:44:15.575Z,99157.06
2022-09-11T03:45:18.343Z,99163.30
2022-09-11T03:46:22.280Z,99172.30
2022-09-11T03:47:24.525Z,99167.78
2022-09-11T03:48:30.864Z,99161.58
2022-09-11T03:49:33.064Z,99166.81
2022-09-11T03:50:35.788Z,99165.00
2022-09-11T03:51:37.959Z,99166.69
2022-09-11T03:52:41.240Z,99166.69
2022-09-11T03:53:43.625Z,99166.69
2022-09-11T03:54:48.683Z,99163.16
2022-09-11T03:55:51.610Z,99166.69
2022-09-11T03:56:54.233Z,99164.73
2022-09-11T03:57:58.143Z,99164.00
2022-09-11T03:59:02.184Z,99165.71
2022-09-11T04:00:05.676Z,99160.35
2022-09-11T04:01:10.636Z,99173.62
2022-09-11T04:02:12.904Z,99174.59
2022-09-11T04:03:15.733Z,99176.30
2022-09-11T04:04:18.890Z,99178.14
2022-09-11T04:05:22.097Z,99172.78
2022-09-11T04:06:24.635Z,99174.49
2022-09-11T04:07:27.956Z,99177.17
2022-09-11T04:08:30.262Z,99177.17
2022-09-11T04:09:32.538Z,99185.21
2022-09-11T04:10:35.796Z,99183.37
2022-09-11T04:11:38.097Z,99180.69
2022-09-11T04:12:42.138Z,99175.33
2022-09-11T04:13:44.396Z,99178.84
2022-09-11T04:14:48.912Z,99175.33
2022-09-11T04:15:51.311Z,99178.84
2022-09-11T04:16:53.703Z,99177.17
2022-09-11T04:17:56.275Z,99183.37
2022-09-11T04:19:01.122Z,99186.05
2022-09-11T04:20:04.268Z,99181.53
2022-09-11T04:21:07.749Z,99192.25
2022-09-11T04:22:10.473Z,99190.44
2022-09-11T04:23:14.849Z,99192.25
2022-09-11T04:24:18.281Z,99194.92
2022-09-11T04:25:22.095Z,99194.92
2022-09-11T04:26:25.025Z,99197.61
2022-09-11T04:27:29.218Z,99199.45
2022-09-11T04:28:31.865Z,99208.33
2022-09-11T04:29:34.917Z,99206.52
2022-09-11T04:30:37.481Z,99207.48
2022-09-11T04:31:39.961Z,99204.81
2022-09-11T04:32:42.640Z,99216.37
2022-09-11T04:33:45.454Z,99215.53
2022-09-11T04:34:48.577Z,99216.37
2022-09-11T04:35:51.626Z,99214.56
2022-09-11T04:36:53.918Z,99212.72
2022-09-11T04:37:56.207Z,99214.56
2022-09-11T04:38:58.390Z,99218.20
2022-09-11T04:40:00.909Z,99214.56
2022-09-11T04:41:04.486Z,99213.69
2022-09-11T04:42:07.091Z,99211.00
2022-09-11T04:43:11.009Z,99216.37
2022-09-11T04:44:13.688Z,99222.59
2022-09-11T04:45:17.711Z,99220.89
2022-09-11T04:46:21.324Z,99223.56
2022-09-11T04:47:23.879Z,99223.70
2022-09-11T04:48:26.096Z,99221.98
2022-09-11T04:49:28.390Z,99217.59
2022-09-11T04:50:31.270Z,99223.83
2022-09-11T04:51:50.740Z,99226.64
2022-09-11T04:52:54.296Z,99227.61
2022-09-11T04:53:56.979Z,99218.83
2022-09-11T04:54:59.903Z,99218.83
2022-09-11T04:56:05.557Z,99215.56
2022-09-11T04:57:10.521Z,99204.98
2022-09-11T04:58:13.044Z,99214.95
2022-09-11T04:59:17.044Z,99220.31
2022-09-11T05:00:22.863Z,99219.47
2022-09-11T05:01:26.252Z,99215.92
2022-09-11T05:02:30.335Z,99223.96
2022-09-11T05:03:32.668Z,99215.08
2022-09-11T05:04:35.160Z,99221.28
2022-09-11T05:05:37.438Z,99218.60
2022-09-11T05:06:40.360Z,99220.44
2022-09-11T05:07:44.531Z,99225.80
2022-09-11T05:08:46.878Z,99230.31
2022-09-11T05:09:51.317Z,99226.64
2022-09-11T05:10:53.683Z,99226.64
2022-09-11T05:11:56.337Z,99225.80
2022-09-11T05:12:59.867Z,99220.44
2022-09-11T05:14:02.962Z,99220.44
2022-09-11T05:15:07.893Z,99223.96
2022-09-11T05:16:12.542Z,99218.60
2022-09-11T05:17:15.180Z,99217.77
2022-09-11T05:18:17.446Z,99218.60
2022-09-11T05:19:20.455Z,99217.77
2022-09-11T05:20:23.802Z,99222.16
2022-09-11T05:21:26.486Z,99222.16
2022-09-11T05:22:29.480Z,99223.86
2022-09-11T05:23:32.363Z,99227.38
2022-09-11T05:24:34.661Z,99221.28
2022-09-11T05:25:38.000Z,99225.67
2022-09-11T05:26:40.754Z,99225.67
2022-09-11T05:27:45.557Z,99223.86
2022-09-11T05:28:47.683Z,99225.67
2022-09-11T05:29:49.806Z,99231.16
2022-09-11T05:30:52.984Z,99231.16
2022-09-11T05:31:55.906Z,99226.64
2022-09-11T05:32:58.945Z,99226.64
2022-09-11T05:34:02.339Z,99233.84
2022-09-11T05:35:07.031Z,99227.64
2022-09-11T05:36:11.201Z,99221.41
2022-09-11T05:37:14.381Z,99227.64
2022-09-11T05:38:19.316Z,99220.57
2022-09-11T05:39:22.056Z,99224.09
2022-09-11T05:40:24.828Z,99224.95
2022-09-11T05:41:27.958Z,99231.16
2022-09-11T05:42:30.755Z,99211.20
2022-09-11T05:43:33.144Z,99211.20
2022-09-11T05:44:35.851Z,99222.41
2022-09-11T05:45:38.257Z,99229.45
2022-09-11T05:46:41.062Z,99236.64
2022-09-11T05:47:44.017Z,99234.80
2022-09-11T05:48:46.174Z,99240.29
2022-09-11T05:49:48.404Z,99238.48
2022-09-11T05:52:08.466Z,99235.78
2022-09-11T05:53:11.430Z,99242.00
2022-09-11T05:54:14.841Z,99246.62
2022-09-11T05:55:20.351Z,99236.77
2022-09-11T05:56:24.768Z,99238.48
2022-09-11T05:57:28.866Z,99241.16
2022-09-11T05:58:31.340Z,99235.80
2022-09-11T05:59:34.286Z,99233.97
2022-09-11T06:00:40.665Z,99236.64
2022-09-11T06:01:43.865Z,99232.13
2022-09-11T06:02:47.888Z,99236.52
2022-09-11T06:03:50.653Z,99235.67
2022-09-11T06:04:54.374Z,99233.84
2022-09-11T06:05:58.881Z,99237.36
2022-09-11T06:07:01.903Z,99236.52
2022-09-11T06:08:06.560Z,99230.31
2022-09-11T06:09:08.971Z,99225.80
2022-09-11T06:10:12.522Z,99235.67
2022-09-11T06:11:16.280Z,99235.80
2022-09-11T06:12:18.630Z,99239.45
2022-09-11T06:13:22.029Z,99236.77
2022-09-11T06:14:25.702Z,99238.58
2022-09-11T06:15:45.784Z,99236.91
2022-09-11T06:16:33.593Z,99240.42
2022-09-11T06:17:37.764Z,99233.22
2022-09-11T06:18:41.053Z,99240.42
2022-09-11T06:19:43.774Z,99237.16
2022-09-11T06:20:56.728Z,99233.98
2022-09-11T06:21:59.010Z,99232.41
2022-09-11T06:23:09.376Z,99239.11
2022-09-11T06:24:12.616Z,99235.95
2022-09-11T06:25:15.455Z,99244.85
2022-09-11T06:26:22.387Z,99242.27
2022-09-11T06:27:25.822Z,99248.88
2022-09-11T06:28:28.359Z,99239.25
2022-09-11T06:29:33.276Z,99240.84
2022-09-11T06:30:36.070Z,99242.52
2022-09-11T06:31:38.339Z,99237.16
2022-09-11T06:32:40.522Z,99238.04
2022-09-11T06:33:43.365Z,99231.94
2022-09-11T06:34:46.566Z,99242.90
2022-09-11T06:37:13.834Z,99236.92
2022-09-11T06:38:16.202Z,99246.14
2022-09-11T06:39:21.854Z,99243.09
2022-09-11T06:40:25.707Z,99240.55
2022-09-11T06:41:28.049Z,99247.73
2022-09-11T06:42:35.543Z,99250.66
2022-09-11T06:43:37.830Z,99253.45
2022-09-11T06:44:40.016Z,99242.97
2022-09-11T06:45:43.789Z,99244.55
2022-09-11T06:46:47.624Z,99247.86
2022-09-11T06:47:50.497Z,99252.84
2022-09-11T06:48:54.923Z,99248.11
2022-09-11T06:51:14.614Z,99256.14
2022-09-11T06:54:27.505Z,99252.02
2022-09-11T06:56:34.700Z,99251.42
2022-09-11T06:57:41.719Z,99254.81
2022-09-11T06:58:41.139Z,99258.34
2022-09-11T06:59:43.809Z,99269.05
2022-09-11T07:00:47.667Z,99263.69
2022-09-11T07:02:52.343Z,99269.30
2022-09-11T07:03:54.990Z,99264.69
2022-09-11T07:04:57.422Z,99271.86
2022-09-11T07:06:01.291Z,99271.86
2022-09-11T07:07:04.860Z,99271.73
2022-09-11T07:08:07.373Z,99266.16
2022-09-11T07:09:11.226Z,99278.09
2022-09-11T07:10:19.717Z,99278.09
2022-09-11T07:11:23.792Z,99277.30
2022-09-11T07:18:49.700Z,99287.33
2022-09-11T07:23:02.617Z,99286.37
2022-09-11T07:26:15.239Z,99285.49
2022-09-11T07:27:17.450Z,99279.89
2022-09-11T07:28:20.159Z,99289.63
2022-09-11T07:29:22.607Z,99277.20
2022-09-11T07:30:27.436Z,99277.08
2022-09-11T07:31:32.339Z,99275.28
2022-09-11T07:32:34.559Z,99288.80
2022-09-11T07:33:41.426Z,99279.67
2022-09-11T07:34:43.697Z,99284.77
2022-09-11T07:35:46.391Z,99282.69
2022-09-11T07:36:49.600Z,99286.95
2022-09-11T07:37:52.611Z,99283.05
2022-09-11T07:38:57.496Z,99289.99
2022-09-11T07:41:07.767Z,99282.81
2022-09-11T07:43:13.401Z,99285.96
2022-09-11T07:44:15.482Z,99287.88
2022-09-11T07:45:22.089Z,99284.11
2022-09-11T07:46:24.308Z,99285.65
2022-09-11T07:48:29.925Z,99284.56
2022-09-11T07:49:32.713Z,99285.07
2022-09-11T07:50:36.005Z,99287.38
2022-09-11T07:53:46.784Z,99281.19
2022-09-11T07:54:49.303Z,99281.05
2022-09-11T07:55:53.227Z,99286.64
2022-09-11T07:56:56.101Z,99282.26
2022-09-11T07:57:59.302Z,99285.05
2022-09-11T07:59:01.658Z,99288.45
2022-09-11T08:04:22.180Z,99287.88
2022-09-11T08:05:24.529Z,99278.14
2022-09-11T08:06:28.813Z,99282.53
2022-09-11T08:07:32.936Z,99269.98
2022-09-11T08:08:35.982Z,99279.73
2022-09-11T08:10:43.024Z,99282.03
2022-09-11T08:11:46.915Z,99277.80
2022-09-11T08:12:50.905Z,99277.80
2022-09-11T08:13:54.229Z,99279.27
2022-09-11T08:14:57.737Z,99280.95
2022-09-11T08:16:01.351Z,99274.63
2022-09-11T08:17:04.320Z,99275.47
2022-09-11T08:18:07.020Z,99274.41
2022-09-11T08:19:09.987Z,99269.80
2022-09-11T08:20:13.481Z,99269.55
2022-09-11T08:21:15.956Z,99269.55
2022-09-11T08:22:19.908Z,99280.02
2022-09-11T08:23:22.634Z,99276.24
2022-09-11T08:24:25.624Z,99279.55
2022-09-11T08:25:29.719Z,99279.29
2022-09-11T08:26:35.628Z,99276.48
2022-09-11T08:27:38.151Z,99275.52
2022-09-11T08:28:41.653Z,99278.07
2022-09-11T08:29:44.719Z,99270.88
2022-09-11T08:30:47.809Z,99275.14
2022-09-11T08:31:51.083Z,99277.10
2022-09-11T08:32:53.894Z,99281.46
2022-09-11T08:33:57.718Z,99282.34
2022-09-11T08:35:00.429Z,99284.14
2022-09-11T08:36:05.192Z,99281.23
2022-09-11T08:37:07.457Z,99280.50
2022-09-11T08:38:10.267Z,99284.02
2022-09-11T08:39:13.013Z,99270.03
2022-09-11T08:40:19.046Z,99270.03
2022-09-11T08:41:31.423Z,99275.14
2022-09-11T08:42:33.828Z,99276.98
2022-09-11T08:43:37.081Z,99278.66
2022-09-11T08:44:52.571Z,99276.11
2022-09-11T08:46:00.159Z,99274.17
2022-09-11T08:47:08.378Z,99275.76
2022-09-11T08:48:10.622Z,99271.98
2022-09-11T08:49:26.552Z,99278.18
2022-09-11T08:50:40.987Z,99274.53
2022-09-11T08:51:43.532Z,99275.38
2022-09-11T08:52:46.081Z,99277.09
2022-09-11T08:53:49.138Z,99272.56
2022-09-11T08:54:53.503Z,99279.52
2022-09-11T08:57:17.259Z,99283.27
2022-09-11T08:58:44.009Z,99283.16
2022-09-11T09:00:08.473Z,99277.92
2022-09-11T09:01:27.397Z,99275.38
2022-09-11T09:02:49.565Z,99282.70
2022-09-11T09:04:29.310Z,99273.79
2022-09-11T09:05:57.262Z,99275.38
2022-09-11T09:07:09.886Z,99280.86
2022-09-11T09:09:55.843Z,99279.39
2022-09-11T09:11:21.684Z,99285.60
2022-09-11T09:14:06.813Z,99286.58
2022-09-11T09:15:29.346Z,99283.80
2022-09-11T09:16:52.256Z,99282.92
2022-09-11T09:19:23.785Z,99276.58
2022-09-11T09:22:00.494Z,99274.77
2022-09-11T09:23:07.809Z,99274.66
2022-09-11T09:24:20.295Z,99280.86
2022-09-11T09:25:24.899Z,99277.34
2022-09-11T09:26:38.212Z,99274.89
2022-09-11T09:29:31.886Z,99272.31
2022-09-11T09:31:54.980Z,99278.55
2022-09-11T09:32:59.575Z,99271.37
2022-09-11T09:34:11.992Z,99279.41
2022-09-11T09:37:06.415Z,99278.42
2022-09-11T09:38:21.858Z,99287.19
2022-09-11T09:39:24.518Z,99285.47
2022-09-11T09:40:27.846Z,99284.63
2022-09-11T09:41:49.213Z,99283.67
2022-09-11T09:43:08.781Z,99283.05
2022-09-11T09:44:46.057Z,99289.28
2022-09-11T09:46:13.174Z,99286.47
2022-09-11T09:47:17.434Z,99288.28
2022-09-11T09:48:19.917Z,99288.28
2022-09-11T09:50:38.913Z,99287.30
2022-09-11T09:51:42.120Z,99291.58
2022-09-11T09:52:44.243Z,99289.73
2022-09-11T09:53:55.081Z,99286.09
2022-09-11T09:55:01.626Z,99287.80
2022-09-11T09:56:04.492Z,99290.36
2022-09-11T09:57:08.070Z,99290.23
2022-09-11T09:58:11.276Z,99287.42
2022-09-11T10:00:31.965Z,99277.30
2022-09-11T10:01:48.204Z,99279.00
2022-09-11T10:02:54.183Z,99287.91
2022-09-11T10:04:09.437Z,99282.30
2022-09-11T10:05:25.540Z,99279.48
2022-09-11T10:06:28.605Z,99279.48
2022-09-11T10:07:31.160Z,99284.72
2022-09-11T10:08:37.526Z,99281.20
2022-09-11T10:09:47.585Z,99284.72
2022-09-11T10:11:04.006Z,99283.63
2022-09-11T10:12:06.783Z,99283.63
2022-09-11T10:13:19.990Z,99284.37
2022-09-11T10:14:49.342Z,99274.48
2022-09-11T10:15:27.725Z,99286.92
2022-09-11T10:16:30.677Z,99284.23
2022-09-11T10:17:33.651Z,99279.72
2022-09-11T10:18:38.225Z,99281.56
2022-09-11T10:19:41.734Z,99277.87
2022-09-11T10:20:45.030Z,99273.39
2022-09-11T10:21:48.140Z,99273.39
2022-09-11T10:22:51.224Z,99278.63
2022-09-11T10:23:55.812Z,99279.46
2022-09-11T10:25:16.026Z,99275.81
2022-09-11T10:28:01.244Z,99266.02
2022-09-11T10:29:27.732Z,99274.84
2022-09-11T10:31:55.240Z,99273.97
2022-09-11T10:33:02.617Z,99274.84
2022-09-11T10:34:03.033Z,99281.88
2022-09-11T10:35:09.279Z,99280.20
2022-09-11T10:36:12.985Z,99281.05
2022-09-11T10:38:41.293Z,99272.88
2022-09-11T10:39:43.012Z,99278.23
2022-09-11T10:41:13.254Z,99279.95
2022-09-11T10:44:03.389Z,99273.61
2022-09-11T10:46:25.417Z,99277.27
2022-09-11T10:47:27.554Z,99268.25
2022-09-11T10:48:29.633Z,99275.42
2022-09-11T10:49:32.166Z,99268.25
2022-09-11T10:50:35.217Z,99265.58
2022-09-11T10:51:39.142Z,99261.05
2022-09-11T10:54:42.872Z,99256.42
2022-09-11T10:57:33.428Z,99256.55
2022-09-11T10:58:37.990Z,99255.56
2022-09-11T11:00:07.658Z,99258.24
2022-09-11T11:01:10.918Z,99259.11
2022-09-11T11:02:26.521Z,99250.33
2022-09-11T11:03:29.817Z,99244.97
2022-09-11T11:04:33.187Z,99249.49
2022-09-11T11:05:42.517Z,99245.81
2022-09-11T11:08:18.568Z,99245.83
2022-09-11T11:09:31.426Z,99244.00
2022-09-11T11:10:44.420Z,99256.44
2022-09-11T11:12:02.545Z,99246.55
2022-09-11T11:13:29.249Z,99246.55
2022-09-11T11:14:54.150Z,99239.34
2022-09-11T11:16:06.188Z,99243.88
2022-09-11T11:17:36.000Z,99242.16
2022-09-11T11:18:42.082Z,99239.48
2022-09-11T11:19:50.288Z,99236.80
2022-09-11T11:20:56.844Z,99240.45
2022-09-11T11:22:26.133Z,99234.12
2022-09-11T11:25:22.541Z,99242.28
2022-09-11T11:26:28.871Z,99243.12
2022-09-11T11:27:40.825Z,99243.12
2022-09-11T11:29:10.325Z,99244.13
2022-09-11T11:30:15.385Z,99242.29
2022-09-11T11:33:16.706Z,99244.96
2022-09-11T11:34:50.239Z,99243.12
2022-09-11T11:36:18.378Z,99244.13
2022-09-11T11:37:24.118Z,99244.13
2022-09-11T11:38:40.020Z,99246.81
2022-09-11T11:39:55.152Z,99253.14
2022-09-11T11:41:01.837Z,99255.82
2022-09-11T11:42:12.745Z,99248.63
2022-09-11T11:43:16.890Z,99249.49
2022-09-11T11:45:37.705Z,99249.61
2022-09-11T11:46:45.875Z,99250.33
2022-09-11T11:47:48.122Z,99252.88
2022-09-11T11:49:00.149Z,99257.41
2022-09-11T11:50:29.768Z,99251.91
2022-09-11T11:53:01.063Z,99255.33
2022-09-11T11:55:56.178Z,99245.30
2022-09-11T11:57:08.467Z,99251.52
2022-09-11T11:58:46.598Z,99242.64
2022-09-11T12:01:14.711Z,99241.66
2022-09-11T12:03:44.952Z,99241.66
2022-09-11T12:04:53.710Z,99239.95
2022-09-11T12:05:55.834Z,99241.80
2022-09-11T12:06:58.321Z,99240.09
2022-09-11T12:08:00.756Z,99239.22
2022-09-11T12:09:03.079Z,99240.09
2022-09-11T12:10:06.928Z,99242.16
2022-09-11T12:11:09.583Z,99234.25
2022-09-11T12:12:12.380Z,99233.41
2022-09-11T12:13:16.595Z,99235.09
2022-09-11T12:14:29.270Z,99233.98
2022-09-11T12:15:31.977Z,99233.98
2022-09-11T12:16:35.327Z,99236.54
2022-09-11T12:17:39.562Z,99240.93
2022-09-11T12:18:43.983Z,99234.59
2022-09-11T12:21:26.980Z,99232.73
2022-09-11T12:22:34.480Z,99230.95
2022-09-11T12:23:49.292Z,99232.76
2022-09-11T12:24:56.071Z,99235.44
2022-09-11T12:26:18.593Z,99233.86
2022-09-11T12:27:40.202Z,99237.54
2022-09-11T12:28:43.136Z,99235.83
2022-09-11T12:29:56.101Z,99239.48
2022-09-11T12:31:02.255Z,99235.22
2022-09-11T12:32:08.696Z,99227.31
2022-09-11T12:34:46.949Z,99228.50
2022-09-11T12:35:49.508Z,99227.56
2022-09-11T12:38:33.810Z,99228.76
2022-09-11T12:39:46.069Z,99230.77
2022-09-11T12:41:03.321Z,99238.20
2022-09-11T12:42:25.696Z,99232.84
2022-09-11T12:43:31.020Z,99229.31
2022-09-11T12:44:49.202Z,99230.41
2022-09-11T12:45:51.358Z,99223.48
2022-09-11T12:47:00.502Z,99222.99
2022-09-11T12:48:05.487Z,99227.52
2022-09-11T12:49:22.072Z,99227.64
2022-09-11T12:50:19.389Z,99233.22
2022-09-11T12:51:41.534Z,99225.31
2022-09-11T12:52:50.620Z,99227.28
2022-09-11T12:53:58.823Z,99229.13
2022-09-11T12:55:04.292Z,99219.12
2022-09-11T12:56:07.131Z,99226.19
2022-09-11T12:57:28.040Z,99228.73
2022-09-11T12:59:53.957Z,99227.48
2022-09-11T13:01:17.704Z,99223.73
2022-09-11T13:02:39.191Z,99224.44
2022-09-11T13:03:51.506Z,99228.70
2022-09-11T13:04:54.609Z,99224.92
2022-09-11T13:05:59.307Z,99224.80
2022-09-11T13:07:03.468Z,99227.34
2022-09-11T13:08:14.798Z,99225.41
2022-09-11T13:09:20.208Z,99223.56
2022-09-11T13:11:49.032Z,99220.98
2022-09-11T13:12:53.471Z,99228.09
2022-09-11T13:13:57.127Z,99225.41
2022-09-11T13:15:00.109Z,99217.37
2022-09-11T13:17:30.157Z,99215.22
2022-09-11T13:18:33.300Z,99218.69
2022-09-11T13:19:36.558Z,99222.08
2022-09-11T13:20:40.876Z,99213.06
2022-09-11T13:21:45.168Z,99215.62
2022-09-11T13:22:48.931Z,99218.03
2022-09-11T13:23:52.390Z,99212.55
2022-09-11T13:25:13.112Z,99213.28
2022-09-11T13:26:24.761Z,99209.86
2022-09-11T13:27:27.952Z,99211.58
2022-09-11T13:28:32.550Z,99215.83
2022-09-11T13:29:36.975Z,99215.83
2022-09-11T13:30:43.671Z,99208.63
2022-09-11T13:31:46.533Z,99214.86
2022-09-11T13:32:50.490Z,99206.72
2022-09-11T13:33:53.871Z,99208.40
2022-09-11T13:34:59.300Z,99207.42
2022-09-11T13:36:02.141Z,99203.78
2022-09-11T13:37:09.635Z,99209.84
2022-09-11T13:38:23.029Z,99209.84
2022-09-11T13:39:25.677Z,99201.80
2022-09-11T13:40:36.401Z,99206.19
2022-09-11T13:41:40.562Z,99200.83
2022-09-11T13:42:43.825Z,99201.70
2022-09-11T13:43:50.335Z,99202.54
2022-09-11T13:44:54.360Z,99199.86
2022-09-11T13:47:25.519Z,99195.41
2022-09-11T13:48:28.914Z,99203.38
2022-09-11T13:49:36.349Z,99199.02
2022-09-11T13:50:38.897Z,99198.02
2022-09-11T13:51:46.249Z,99190.98
2022-09-11T13:52:49.499Z,99190.84
2022-09-11T13:53:57.564Z,99195.20
2022-09-11T13:55:02.370Z,99185.34
2022-09-11T13:56:08.338Z,99188.87
2022-09-11T13:58:31.120Z,99183.45
2022-09-11T13:59:49.073Z,99175.73
2022-09-11T14:00:54.876Z,99175.73
2022-09-11T14:01:57.545Z,99181.56
2022-09-11T14:03:01.941Z,99180.69
2022-09-11T14:04:05.683Z,99175.33
2022-09-11T14:05:17.559Z,99173.52
2022-09-11T14:06:21.829Z,99169.00
2022-09-11T14:07:25.944Z,99158.67
2022-09-11T14:08:40.143Z,99158.67
2022-09-11T14:09:48.342Z,99176.06
2022-09-11T14:10:53.361Z,99168.02
2022-09-11T14:11:58.110Z,99169.70
2022-09-11T14:13:06.315Z,99167.02
2022-09-11T14:15:45.838Z,99158.20
2022-09-11T14:16:54.616Z,99156.42
2022-09-11T14:18:04.486Z,99151.06
2022-09-11T14:19:17.137Z,99158.27
2022-09-11T14:20:24.598Z,99156.42
2022-09-11T14:21:49.488Z,99152.91
2022-09-11T14:22:53.695Z,99151.20
2022-09-11T14:23:57.394Z,99154.75
2022-09-11T14:26:20.490Z,99146.03
2022-09-11T14:27:36.553Z,99154.15
2022-09-11T14:28:43.183Z,99144.39
2022-09-11T14:29:49.630Z,99152.44
2022-09-11T14:31:10.145Z,99135.52
2022-09-11T14:32:36.176Z,99140.04
2022-09-11T14:33:38.927Z,99142.72
2022-09-11T14:34:41.818Z,99153.44
2022-09-11T14:35:45.390Z,99147.21
2022-09-11T14:36:52.237Z,99149.89
2022-09-11T14:37:54.461Z,99161.35
2022-09-11T14:38:56.554Z,99152.44
2022-09-11T14:40:02.298Z,99147.21
2022-09-11T14:41:05.281Z,99157.94
2022-09-11T14:42:16.170Z,99151.73
2022-09-11T14:43:21.845Z,99165.84
2022-09-11T14:44:24.742Z,99154.28
2022-09-11T14:45:26.921Z,99156.83
2022-09-11T14:46:29.746Z,99146.11
2022-09-11T14:47:32.349Z,99151.47
2022-09-11T14:48:34.693Z,99144.39
2022-09-11T14:49:36.876Z,99142.59